createdAt,value
2023-01-18T00:01:21.505Z,21.13
2023-01-18T00:03:52.988Z,18.00
2023-01-18T00:06:22.983Z,22.60
2023-01-18T00:08:57.404Z,19.77
2023-01-18T00:11:29.947Z,23.40
2023-01-18T00:14:02.631Z,21.50
2023-01-18T00:16:33.049Z,21.97
2023-01-18T00:19:03.837Z,19.80
2023-01-18T00:21:34.107Z,21.00
2023-01-18T00:24:04.495Z,20.47
2023-01-18T00:26:37.112Z,24.03
2023-01-18T00:29:10.372Z,22.67
2023-01-18T00:31:41.362Z,23.40
2023-01-18T00:34:11.636Z,21.83
2023-01-18T00:36:41.591Z,20.73
2023-01-18T00:39:12.989Z,21.87
2023-01-18T00:42:00.919Z,18.77
2023-01-18T00:44:31.147Z,20.77
2023-01-18T00:47:01.493Z,22.87
2023-01-18T00:49:33.973Z,19.83
2023-01-18T00:52:04.646Z,17.60
2023-01-18T00:54:38.342Z,20.27
2023-01-18T00:57:15.968Z,20.67
2023-01-18T00:59:50.764Z,19.87
2023-01-18T01:02:21.541Z,17.30
2023-01-18T01:05:08.619Z,20.10
2023-01-18T01:07:41.778Z,21.77
2023-01-18T01:10:16.915Z,22.53
2023-01-18T01:13:04.174Z,19.13
2023-01-18T01:15:47.367Z,18.63
2023-01-18T01:18:30.773Z,19.27
2023-01-18T01:21:14.752Z,17.87
2023-01-18T01:23:57.968Z,18.10
2023-01-18T01:26:29.128Z,19.83
2023-01-18T01:29:02.980Z,15.77
2023-01-18T01:31:36.069Z,14.33
2023-01-18T01:34:07.223Z,18.90
2023-01-18T01:36:37.538Z,19.37
2023-01-18T01:39:10.913Z,14.97
2023-01-18T01:41:41.569Z,15.17
2023-01-18T01:44:46.210Z,20.50
2023-01-18T01:47:27.866Z,16.30
2023-01-18T01:50:10.792Z,12.17
2023-01-18T01:52:45.017Z,17.67
2023-01-18T01:55:21.322Z,14.33
2023-01-18T01:57:55.900Z,15.80
2023-01-18T02:00:29.279Z,13.30
2023-01-18T02:03:02.550Z,17.83
2023-01-18T02:05:34.873Z,14.10
2023-01-18T02:08:11.320Z,14.13
2023-01-18T02:10:41.983Z,14.40
2023-01-18T02:13:13.742Z,15.07
2023-01-18T02:15:59.234Z,15.93
2023-01-18T02:18:35.192Z,16.93
2023-01-18T02:21:21.298Z,14.50
2023-01-18T02:24:21.980Z,13.40
2023-01-18T02:27:01.858Z,12.73
2023-01-18T02:29:53.879Z,12.23
2023-01-18T02:32:32.335Z,12.80
2023-01-18T02:35:11.886Z,12.87
2023-01-18T02:37:49.597Z,16.03
2023-01-18T02:40:30.073Z,13.17
2023-01-18T02:43:17.125Z,14.40
2023-01-18T02:46:05.066Z,19.53
2023-01-18T02:48:38.870Z,37.97
2023-01-18T02:51:09.654Z,15.20
2023-01-18T02:53:42.980Z,12.87
2023-01-18T02:56:17.438Z,14.33
2023-01-18T02:58:51.241Z,16.83
2023-01-18T03:01:29.457Z,14.47
2023-01-18T03:04:05.085Z,13.90
2023-01-18T03:06:36.682Z,14.53
2023-01-18T03:09:07.192Z,15.17
2023-01-18T03:11:46.839Z,13.20
2023-01-18T03:14:28.575Z,14.70
2023-01-18T03:17:10.972Z,16.50
2023-01-18T03:19:59.684Z,12.43
2023-01-18T03:22:46.280Z,12.30
2023-01-18T03:25:21.666Z,15.93
2023-01-18T03:28:09.053Z,15.83
2023-01-18T03:30:54.073Z,14.00
2023-01-18T03:33:46.509Z,13.13
2023-01-18T03:36:24.965Z,11.03
2023-01-18T03:38:58.555Z,18.50
2023-01-18T03:41:33.254Z,15.07
2023-01-18T03:44:09.603Z,15.97
2023-01-18T03:46:40.952Z,12.80
2023-01-18T03:49:18.561Z,13.30
2023-01-18T03:51:58.353Z,12.63
2023-01-18T03:54:36.540Z,12.13
2023-01-18T03:57:12.878Z,11.40
2023-01-18T03:59:44.058Z,19.03
2023-01-18T04:02:14.945Z,12.33
2023-01-18T04:04:47.821Z,11.90
2023-01-18T04:07:17.767Z,13.33
2023-01-18T04:09:48.060Z,15.87
2023-01-18T04:12:18.055Z,13.23
2023-01-18T04:14:48.411Z,13.17
2023-01-18T04:17:19.050Z,11.63
2023-01-18T04:19:52.535Z,15.63
2023-01-18T04:22:22.902Z,13.93
2023-01-18T04:24:53.187Z,14.20
2023-01-18T04:27:25.101Z,13.73
2023-01-18T04:29:56.964Z,11.83
2023-01-18T04:32:28.850Z,15.27
2023-01-18T04:35:01.742Z,15.00
2023-01-18T04:37:34.240Z,14.80
2023-01-18T04:40:04.679Z,15.43
2023-01-18T04:42:36.686Z,16.13
2023-01-18T04:45:14.078Z,15.03
2023-01-18T04:47:45.094Z,15.03
2023-01-18T04:50:18.286Z,14.80
2023-01-18T04:52:48.549Z,10.03
2023-01-18T04:55:19.024Z,10.73
2023-01-18T04:57:49.186Z,13.77
2023-01-18T05:00:21.430Z,11.00
2023-01-18T05:02:51.377Z,12.53
2023-01-18T05:05:26.251Z,10.97
2023-01-18T05:07:56.816Z,14.20
2023-01-18T05:10:27.106Z,10.73
2023-01-18T05:12:57.337Z,13.43
2023-01-18T05:15:27.886Z,12.47
2023-01-18T05:17:57.827Z,14.10
2023-01-18T05:20:30.658Z,11.20
2023-01-18T05:23:10.783Z,10.03
2023-01-18T05:25:41.879Z,12.33
2023-01-18T05:28:12.483Z,12.40
2023-01-18T05:30:44.480Z,11.43
2023-01-18T05:33:14.436Z,14.30
2023-01-18T05:35:50.305Z,11.23
2023-01-18T05:38:20.498Z,11.47
2023-01-18T05:40:52.839Z,12.47
2023-01-18T05:43:24.178Z,11.13
2023-01-18T05:45:56.446Z,10.00
2023-01-18T05:48:27.056Z,12.17
2023-01-18T05:51:00.024Z,12.20
2023-01-18T05:53:30.241Z,12.83
2023-01-18T05:56:01.965Z,12.27
2023-01-18T05:58:32.303Z,15.13
2023-01-18T06:01:02.741Z,15.27
2023-01-18T06:03:33.058Z,13.33
2023-01-18T06:06:06.738Z,12.70
2023-01-18T06:08:37.296Z,13.13
2023-01-18T06:11:10.449Z,17.43
2023-01-18T06:13:40.465Z,10.80
2023-01-18T06:16:12.110Z,9.93
2023-01-18T06:18:42.353Z,12.87
2023-01-18T06:21:17.993Z,14.43
2023-01-18T06:23:48.167Z,12.47
2023-01-18T06:26:18.681Z,14.33
2023-01-18T06:28:48.900Z,12.47
2023-01-18T06:31:19.317Z,16.83
2023-01-18T06:33:49.335Z,12.40
2023-01-18T06:36:22.260Z,11.67
2023-01-18T06:38:52.324Z,9.17
2023-01-18T06:41:22.634Z,12.80
2023-01-18T06:43:53.079Z,11.87
2023-01-18T06:46:23.562Z,9.67
2023-01-18T06:48:53.551Z,12.80
2023-01-18T06:51:26.712Z,9.07
2023-01-18T06:53:56.652Z,13.13
2023-01-18T06:56:26.888Z,12.13
2023-01-18T06:58:57.719Z,13.53
2023-01-18T07:01:28.552Z,15.93
2023-01-18T07:03:58.646Z,14.10
2023-01-18T07:06:32.202Z,12.60
2023-01-18T07:09:02.142Z,13.20
2023-01-18T07:11:32.625Z,14.50
2023-01-18T07:14:02.527Z,12.27
2023-01-18T07:16:32.900Z,10.63
2023-01-18T07:19:04.062Z,16.93
2023-01-18T07:21:37.170Z,13.47
2023-01-18T07:24:08.631Z,9.10
2023-01-18T07:26:39.084Z,9.90
2023-01-18T07:29:09.121Z,9.40
2023-01-18T07:31:40.599Z,8.40
2023-01-18T07:34:12.125Z,9.53
2023-01-18T07:36:45.146Z,11.03
2023-01-18T07:39:15.605Z,12.10
2023-01-18T07:41:46.271Z,16.90
2023-01-18T07:44:16.711Z,11.80
2023-01-18T07:46:47.059Z,12.53
2023-01-18T07:49:17.534Z,8.87
2023-01-18T07:51:50.401Z,9.23
2023-01-18T07:54:20.503Z,11.87
2023-01-18T07:56:51.481Z,13.20
2023-01-18T07:59:21.451Z,9.07
2023-01-18T08:01:51.999Z,8.93
2023-01-18T08:04:22.276Z,8.43
2023-01-18T08:06:55.466Z,9.13
2023-01-18T08:09:25.785Z,14.03
2023-01-18T08:11:56.328Z,9.97
2023-01-18T08:14:26.676Z,12.07
2023-01-18T08:16:57.384Z,14.13
2023-01-18T08:19:27.666Z,9.27
2023-01-18T08:22:00.547Z,8.83
2023-01-18T08:24:30.527Z,15.67
2023-01-18T08:27:00.787Z,11.40
2023-01-18T08:29:30.739Z,12.67
2023-01-18T08:32:02.448Z,16.70
2023-01-18T08:34:32.388Z,8.83
2023-01-18T08:37:05.646Z,9.37
2023-01-18T08:39:35.621Z,8.60
2023-01-18T08:42:05.990Z,8.77
2023-01-18T08:44:35.951Z,12.77
2023-01-18T08:47:06.272Z,12.77
2023-01-18T08:49:36.276Z,14.60
2023-01-18T08:52:10.949Z,9.70
2023-01-18T08:54:40.895Z,11.97
2023-01-18T08:57:11.165Z,14.33
2023-01-18T08:59:41.089Z,11.87
2023-01-18T09:02:12.833Z,10.37
2023-01-18T09:04:47.446Z,11.70
2023-01-18T09:07:20.881Z,13.77
2023-01-18T09:09:51.740Z,15.83
2023-01-18T09:12:22.468Z,19.43
2023-01-18T09:14:52.991Z,12.03
2023-01-18T09:17:23.597Z,12.00
2023-01-18T09:19:54.439Z,7.67
2023-01-18T09:22:30.132Z,12.33
2023-01-18T09:25:00.323Z,9.47
2023-01-18T09:27:30.674Z,11.20
2023-01-18T09:30:01.949Z,18.53
2023-01-18T09:32:32.394Z,13.50
2023-01-18T09:35:02.362Z,10.17
2023-01-18T09:37:40.362Z,17.07
2023-01-18T09:40:19.130Z,8.90
2023-01-18T09:42:52.833Z,8.20
2023-01-18T09:45:32.029Z,12.17
2023-01-18T09:48:07.594Z,13.03
2023-01-18T09:50:44.328Z,12.80
2023-01-18T09:53:31.459Z,12.00
2023-01-18T09:56:08.231Z,16.53
2023-01-18T09:58:50.309Z,8.53
2023-01-18T10:01:24.741Z,12.67
2023-01-18T10:03:59.287Z,8.57
2023-01-18T10:06:32.353Z,9.20
2023-01-18T10:09:07.916Z,9.60
2023-01-18T10:11:47.215Z,9.93
2023-01-18T10:14:21.546Z,12.37
2023-01-18T10:16:57.787Z,11.40
2023-01-18T10:19:31.365Z,10.87
2023-01-18T10:22:09.129Z,13.60
2023-01-18T10:24:48.725Z,12.00
2023-01-18T10:27:32.071Z,8.87
2023-01-18T10:30:14.442Z,8.77
2023-01-18T10:32:50.824Z,16.73
2023-01-18T10:35:32.105Z,7.70
2023-01-18T10:38:06.463Z,10.07
2023-01-18T10:40:41.831Z,11.20
2023-01-18T10:43:17.329Z,9.83
2023-01-18T10:45:48.305Z,21.97
2023-01-18T10:48:28.109Z,13.27
2023-01-18T10:51:01.266Z,10.30
2023-01-18T10:53:35.205Z,9.53
2023-01-18T10:56:13.737Z,13.33
2023-01-18T10:58:47.051Z,8.83
2023-01-18T11:01:22.339Z,12.60
2023-01-18T11:03:54.801Z,9.20
2023-01-18T11:06:26.456Z,18.73
2023-01-18T11:08:57.121Z,14.10
2023-01-18T11:11:47.895Z,8.73
2023-01-18T11:14:29.342Z,15.13
2023-01-18T11:17:02.182Z,15.07
2023-01-18T11:19:33.335Z,8.93
2023-01-18T11:22:03.869Z,9.47
2023-01-18T11:24:34.998Z,11.47
2023-01-18T11:27:14.728Z,10.80
2023-01-18T11:29:48.267Z,8.43
2023-01-18T11:32:24.599Z,15.77
2023-01-18T11:34:57.249Z,8.67
2023-01-18T11:37:34.411Z,8.17
2023-01-18T11:40:28.059Z,9.70
2023-01-18T11:43:05.064Z,10.90
2023-01-18T11:45:40.423Z,16.40
2023-01-18T11:48:20.370Z,9.30
2023-01-18T11:50:54.707Z,10.10
2023-01-18T11:53:33.429Z,10.17
2023-01-18T11:56:08.793Z,11.57
2023-01-18T11:58:43.196Z,12.30
2023-01-18T12:01:29.155Z,10.20
2023-01-18T12:04:05.181Z,11.83
2023-01-18T12:06:47.372Z,14.00
2023-01-18T12:09:37.450Z,10.47
2023-01-18T12:12:25.668Z,12.10
2023-01-18T12:15:24.209Z,12.27
2023-01-18T12:18:13.953Z,14.37
2023-01-18T12:20:58.503Z,14.60
2023-01-18T12:23:50.528Z,17.63
2023-01-18T12:26:33.335Z,11.77
2023-01-18T12:29:29.348Z,12.43
2023-01-18T12:32:27.408Z,17.20
2023-01-18T12:35:23.224Z,15.30
2023-01-18T12:38:04.940Z,14.07
2023-01-18T12:40:50.045Z,13.20
2023-01-18T12:43:37.156Z,15.13
2023-01-18T12:46:10.911Z,10.63
2023-01-18T12:48:51.436Z,15.47
2023-01-18T12:51:25.548Z,15.87
2023-01-18T12:54:00.529Z,13.80
2023-01-18T12:56:34.376Z,14.63
2023-01-18T12:59:08.588Z,18.33
2023-01-18T13:01:45.025Z,16.53
2023-01-18T13:04:23.363Z,11.57
2023-01-18T13:06:56.822Z,10.90
2023-01-18T13:09:34.275Z,12.90
2023-01-18T13:12:05.880Z,14.87
2023-01-18T13:14:45.007Z,14.30
2023-01-18T13:17:24.657Z,10.20
2023-01-18T13:20:01.763Z,14.63
2023-01-18T13:22:42.361Z,11.97
2023-01-18T13:25:30.685Z,9.27
2023-01-18T13:28:02.934Z,6.93
2023-01-18T13:30:35.703Z,10.30
2023-01-18T13:33:17.083Z,13.03
2023-01-18T13:35:57.709Z,17.73
2023-01-18T13:38:40.986Z,16.93
2023-01-18T13:41:16.908Z,19.40
2023-01-18T13:44:05.983Z,9.40
2023-01-18T13:46:39.547Z,18.50
2023-01-18T13:49:37.969Z,8.83
2023-01-18T13:52:42.210Z,14.83
2023-01-18T13:55:31.171Z,13.73
2023-01-18T13:58:02.123Z,16.73
2023-01-18T14:00:35.185Z,15.43
2023-01-18T14:03:07.691Z,15.90
2023-01-18T14:05:41.052Z,14.20
2023-01-18T14:08:21.614Z,14.60
2023-01-18T14:10:54.016Z,14.60
2023-01-18T14:14:02.896Z,14.13
2023-01-18T14:16:36.224Z,15.90
2023-01-18T14:19:17.977Z,16.40
2023-01-18T14:22:10.206Z,10.30
2023-01-18T14:24:54.200Z,16.87
2023-01-18T14:27:27.127Z,11.03
2023-01-18T14:30:02.782Z,12.33
2023-01-18T14:32:39.575Z,14.63
2023-01-18T14:35:20.805Z,12.07
2023-01-18T14:37:51.611Z,33.33
2023-01-18T14:40:28.383Z,23.27
2023-01-18T14:43:01.655Z,17.07
2023-01-18T14:45:35.138Z,12.13
2023-01-18T14:48:12.349Z,12.47
2023-01-18T14:50:45.905Z,14.63
2023-01-18T14:53:20.913Z,13.00
2023-01-18T14:56:10.647Z,10.20
2023-01-18T14:58:43.845Z,18.40
2023-01-18T15:01:29.381Z,14.03
2023-01-18T15:04:02.516Z,13.57
2023-01-18T15:06:41.571Z,12.70
2023-01-18T15:09:13.792Z,8.80
2023-01-18T15:11:47.656Z,8.83
2023-01-18T15:14:22.069Z,11.60
2023-01-18T15:16:58.780Z,20.00
2023-01-18T15:19:36.861Z,15.97
2023-01-18T15:22:08.526Z,16.43
2023-01-18T15:24:42.666Z,27.07
2023-01-18T15:27:18.939Z,14.30
2023-01-18T15:29:50.938Z,18.53
2023-01-18T15:32:24.338Z,13.70
2023-01-18T15:34:57.668Z,12.00
2023-01-18T15:37:31.127Z,13.43
2023-01-18T15:40:03.387Z,11.93
2023-01-18T15:42:40.949Z,12.53
2023-01-18T15:45:20.823Z,26.23
2023-01-18T15:47:53.051Z,23.70
2023-01-18T15:50:24.729Z,23.00
2023-01-18T15:53:06.266Z,23.03
2023-01-18T15:55:40.019Z,23.57
2023-01-18T15:58:16.995Z,10.57
2023-01-18T16:00:55.927Z,14.40
2023-01-18T16:03:28.480Z,14.67
2023-01-18T16:06:11.209Z,14.53
2023-01-18T16:08:59.348Z,24.57
2023-01-18T16:11:33.063Z,20.80
2023-01-18T16:14:13.000Z,29.53
2023-01-18T16:16:44.770Z,32.70
2023-01-18T16:19:23.846Z,22.53
2023-01-18T16:21:57.560Z,18.27
2023-01-18T16:24:33.091Z,18.30
2023-01-18T16:27:12.770Z,13.57
2023-01-18T16:29:48.800Z,15.07
2023-01-18T16:32:34.547Z,37.70
2023-01-18T16:35:13.504Z,34.67
2023-01-18T16:37:44.492Z,17.90
2023-01-18T16:40:17.107Z,17.00
2023-01-18T16:43:02.450Z,18.87
2023-01-18T16:45:37.926Z,13.00
2023-01-18T16:48:08.909Z,13.77
2023-01-18T16:50:40.729Z,16.77
2023-01-18T16:53:11.990Z,16.80
2023-01-18T16:55:44.028Z,15.70
2023-01-18T16:58:15.223Z,19.07
2023-01-18T17:00:53.811Z,23.60
2023-01-18T17:03:24.160Z,19.70
2023-01-18T17:05:55.436Z,20.97
2023-01-18T17:08:26.047Z,15.97
2023-01-18T17:10:57.597Z,21.50
2023-01-18T17:13:27.887Z,17.47
2023-01-18T17:16:00.989Z,17.87
2023-01-18T17:18:31.145Z,19.47
2023-01-18T17:21:01.852Z,28.40
2023-01-18T17:23:32.314Z,31.07
2023-01-18T17:26:02.854Z,16.67
2023-01-18T17:28:36.112Z,14.73
2023-01-18T17:31:09.556Z,17.77
2023-01-18T17:33:40.647Z,21.83
2023-01-18T17:36:11.923Z,19.63
2023-01-18T17:38:42.451Z,22.80
2023-01-18T17:41:27.625Z,26.17
2023-01-18T17:43:58.602Z,22.77
2023-01-18T17:46:31.826Z,22.00
2023-01-18T17:49:02.739Z,25.80
2023-01-18T17:51:38.290Z,20.67
2023-01-18T17:54:13.279Z,17.33
2023-01-18T17:56:51.060Z,23.07
2023-01-18T17:59:21.872Z,21.27
2023-01-18T18:01:55.375Z,20.93
2023-01-18T18:04:25.962Z,17.27
2023-01-18T18:06:58.789Z,18.13
2023-01-18T18:09:29.369Z,29.63
2023-01-18T18:12:00.138Z,19.63
2023-01-18T22:56:22.048Z,24.03
2023-01-18T22:58:56.565Z,25.87
2023-01-18T23:01:29.251Z,13.20
2023-01-18T23:04:01.364Z,23.43
2023-01-18T23:06:34.787Z,21.17
2023-01-18T23:09:05.370Z,20.13
2023-01-18T23:11:38.507Z,26.47
2023-01-18T23:14:22.409Z,28.60
2023-01-18T23:17:05.306Z,21.63
2023-01-18T23:19:36.148Z,26.70
2023-01-18T23:22:07.599Z,19.50
2023-01-18T23:24:38.949Z,19.00
2023-01-18T23:27:12.467Z,24.87
2023-01-18T23:29:42.937Z,26.30
2023-01-18T23:32:13.148Z,23.03
2023-01-18T23:34:44.112Z,27.13
2023-01-18T23:37:14.466Z,25.10
2023-01-18T23:39:57.310Z,26.43
2023-01-18T23:42:42.250Z,26.33
2023-01-18T23:45:25.435Z,19.77
2023-01-18T23:48:07.870Z,24.33
2023-01-18T23:50:50.846Z,24.20
2023-01-18T23:53:33.209Z,24.17
2023-01-18T23:56:03.547Z,26.77
2023-01-18T23:58:36.107Z,27.20
